Barfleur — FNIE — position and weather

sailwx.info

Track history (hours):
 
Tides and Currents Weather Stations Pressure Air Temp Water Temp Dewpoint Dewpoint Depression Visibility Wind Speed Wind Dir Waves Ship Positions

Barfleur

Operator: Brittany Ferries

Last reported at 2014-Oct-31 23:18 UTC. Time now 2014-Nov-01 00:34 UTC.
Position N 50°42' W 001°59'.

Length 158 m; draft 5 m.

Type: Passenger vessel. MMSI: 227289000.

Date/timePositionNaut miles runAvg speedWind from/ knotsBaromVisibWave heightAir tempDewpointWater temp
2014-Oct-31 23:18N 50°42' W 001°59'0 0.0
2014-Oct-31 22:33N 50°42' W 001°59'0 0.2
2014-Oct-31 21:33N 50°42' W 001°59'1212.2
2014-Oct-31 20:33N 50°32' W 001°50'34 3.6
2014-Oct-31 11:17N 49°58' W 001°41'1317.8
2014-Oct-31 10:34N 50°11' W 001°44'1817.8
2014-Oct-31 09:33N 50°28' W 001°50'1515.0
2014-Oct-31 08:34N 50°42' W 001°58'1 0.1
2014-Oct-30 22:34N 50°42' W 001°59'0 0.1
2014-Oct-30 21:33N 50°42' W 001°60'1211.8
2014-Oct-30 20:34N 50°32' W 001°52'2 0.2
2014-Oct-30 09:23N 50°33' W 001°52'8 2.9
2014-Oct-30 06:29N 50°41' W 001°57'57 6.8
2014-Oct-29 22:05N 49°45' W 001°42'7 3.8
2014-Oct-29 20:12N 49°39' W 001°37'0 0.0
2014-Oct-29 19:22N 49°39' W 001°37'0 0.0
2014-Oct-29 18:32N 49°39' W 001°37'50 5.6
2014-Oct-29 09:32N 50°28' W 001°51'1414.5
2014-Oct-29 08:33N 50°42' W 001°58'1 0.5
2014-Oct-29 06:29N 50°41' W 001°57'47 2.5
2014-Oct-28 11:33N 49°55' W 001°39'1818.2
2014-Oct-28 10:33N 50°13' W 001°44'1818.3
2014-Oct-28 09:33N 50°31' W 001°51'13 5.6
2014-Oct-28 07:17N 50°42' W 001°59'0 0.0
2014-Oct-27 23:34N 50°42' W 001°59'0 0.0
2014-Oct-27 22:34N 50°42' W 001°59'0 0.0
2014-Oct-27 21:33N 50°42' W 001°59'1211.9
2014-Oct-27 20:33N 50°32' W 001°50'2 0.2
2014-Oct-27 09:33N 50°31' W 001°52'1211.9
2014-Oct-27 08:31N 50°42' W 001°59'0 0.0
2014-Oct-26 21:34N 50°42' W 001°59'1414.2
2014-Oct-26 20:33N 50°29' W 001°51'1 0.1
2014-Oct-26 09:33N 50°30' W 001°52'1312.9
2014-Oct-26 08:32N 50°42' W 001°58'1 0.1
2014-Oct-25 20:34N 50°42' W 001°60'1312.6
2014-Oct-25 19:34N 50°31' W 001°50'4217.9
2014-Oct-25 17:13N 49°50' W 001°42'38 4.4
2014-Oct-25 08:33N 50°28' W 001°51'1514.9
2014-Oct-25 07:33N 50°42' W 001°57'1 0.1
2014-Oct-24 20:33N 50°42' W 001°59'1413.4
2014-Oct-24 19:33N 50°30' W 001°52'0 0.0
2014-Oct-24 08:33N 50°30' W 001°52'1413.1
2014-Oct-24 07:31N 50°42' W 001°59'2 0.1
2014-Oct-23 20:33N 50°42' W 001°57'1616.1
2014-Oct-23 19:33N 50°26' W 001°49'9 0.8
2014-Oct-23 08:16N 50°35' W 001°53'8 3.0
2014-Oct-23 05:33N 50°42' W 001°58'5 5.1
2014-Oct-23 04:33N 50°41' W 001°50'1 1.2
2014-Oct-23 03:33N 50°40' W 001°50'1 0.7
2014-Oct-23 02:33N 50°39' W 001°50'3 3.1
2014-Oct-23 01:33N 50°36' W 001°50'3711.0
2014-Oct-22 22:12N 50°00' W 001°37'913.1
2014-Oct-22 21:29N 49°51' W 001°39'1112.0
2014-Oct-22 20:33N 49°40' W 001°37'54 4.4
2014-Oct-22 08:20N 50°33' W 001°52'9 3.3
2014-Oct-22 05:33N 50°42' W 001°57'6 6.3
2014-Oct-22 04:33N 50°41' W 001°47'2 1.6
2014-Oct-22 03:34N 50°40' W 001°49'2 2.1
2014-Oct-22 02:33N 50°38' W 001°50'  
Track history (hours):
 
Tides and Currents Weather Stations Pressure Air Temp Water Temp Dewpoint Dewpoint Depression Visibility Wind Speed Wind Dir Waves Ship Positions

Barfleur

Operator: Brittany Ferries

Last reported at 2014-Oct-31 23:18 UTC. Time now 2014-Nov-01 00:34 UTC.
Position N 50°42' W 001°59'.

Length 158 m; draft 5 m.

Type: Passenger vessel. MMSI: 227289000.

Date/timePositionNaut miles runAvg speedWind from/ knotsBaromVisibWave heightAir tempDewpointWater temp
2014-Oct-31 23:18N 50°42' W 001°59'0 0.0
2014-Oct-31 22:33N 50°42' W 001°59'0 0.2
2014-Oct-31 21:33N 50°42' W 001°59'1212.2
2014-Oct-31 20:33N 50°32' W 001°50'34 3.6
2014-Oct-31 11:17N 49°58' W 001°41'1317.8
2014-Oct-31 10:34N 50°11' W 001°44'1817.8
2014-Oct-31 09:33N 50°28' W 001°50'1515.0
2014-Oct-31 08:34N 50°42' W 001°58'1 0.1
2014-Oct-30 22:34N 50°42' W 001°59'0 0.1
2014-Oct-30 21:33N 50°42' W 001°60'1211.8
2014-Oct-30 20:34N 50°32' W 001°52'2 0.2
2014-Oct-30 09:23N 50°33' W 001°52'8 2.9
2014-Oct-30 06:29N 50°41' W 001°57'57 6.8
2014-Oct-29 22:05N 49°45' W 001°42'7 3.8
2014-Oct-29 20:12N 49°39' W 001°37'0 0.0
2014-Oct-29 19:22N 49°39' W 001°37'0 0.0
2014-Oct-29 18:32N 49°39' W 001°37'50 5.6
2014-Oct-29 09:32N 50°28' W 001°51'1414.5
2014-Oct-29 08:33N 50°42' W 001°58'1 0.5
2014-Oct-29 06:29N 50°41' W 001°57'47 2.5
2014-Oct-28 11:33N 49°55' W 001°39'1818.2
2014-Oct-28 10:33N 50°13' W 001°44'1818.3
2014-Oct-28 09:33N 50°31' W 001°51'13 5.6
2014-Oct-28 07:17N 50°42' W 001°59'0 0.0
2014-Oct-27 23:34N 50°42' W 001°59'0 0.0
2014-Oct-27 22:34N 50°42' W 001°59'0 0.0
2014-Oct-27 21:33N 50°42' W 001°59'1211.9
2014-Oct-27 20:33N 50°32' W 001°50'2 0.2
2014-Oct-27 09:33N 50°31' W 001°52'1211.9
2014-Oct-27 08:31N 50°42' W 001°59'0 0.0
2014-Oct-26 21:34N 50°42' W 001°59'1414.2
2014-Oct-26 20:33N 50°29' W 001°51'1 0.1
2014-Oct-26 09:33N 50°30' W 001°52'1312.9
2014-Oct-26 08:32N 50°42' W 001°58'1 0.1
2014-Oct-25 20:34N 50°42' W 001°60'1312.6
2014-Oct-25 19:34N 50°31' W 001°50'4217.9
2014-Oct-25 17:13N 49°50' W 001°42'38 4.4
2014-Oct-25 08:33N 50°28' W 001°51'1514.9
2014-Oct-25 07:33N 50°42' W 001°57'1 0.1
2014-Oct-24 20:33N 50°42' W 001°59'1413.4
2014-Oct-24 19:33N 50°30' W 001°52'0 0.0
2014-Oct-24 08:33N 50°30' W 001°52'1413.1
2014-Oct-24 07:31N 50°42' W 001°59'2 0.1
2014-Oct-23 20:33N 50°42' W 001°57'1616.1
2014-Oct-23 19:33N 50°26' W 001°49'9 0.8
2014-Oct-23 08:16N 50°35' W 001°53'8 3.0
2014-Oct-23 05:33N 50°42' W 001°58'5 5.1
2014-Oct-23 04:33N 50°41' W 001°50'1 1.2
2014-Oct-23 03:33N 50°40' W 001°50'1 0.7
2014-Oct-23 02:33N 50°39' W 001°50'3 3.1
2014-Oct-23 01:33N 50°36' W 001°50'3711.0
2014-Oct-22 22:12N 50°00' W 001°37'913.1
2014-Oct-22 21:29N 49°51' W 001°39'1112.0
2014-Oct-22 20:33N 49°40' W 001°37'54 4.4
2014-Oct-22 08:20N 50°33' W 001°52'9 3.3
2014-Oct-22 05:33N 50°42' W 001°57'6 6.3
2014-Oct-22 04:33N 50°41' W 001°47'2 1.6
2014-Oct-22 03:34N 50°40' W 001°49'2 2.1
2014-Oct-22 02:33N 50°38' W 001°50'  

Dump ship's entire track history